sensor_id;sensor_type;location;lat;lon;timestamp;P1;durP1;ratioP1;P2;durP2;ratioP2
36691;SDS011;22678;52.052;4.242;2023-12-07T00:00:25;9.33;;;3.27;;
36691;SDS011;22678;52.052;4.242;2023-12-07T00:02:50;4.33;;;2.53;;
36691;SDS011;22678;52.052;4.242;2023-12-07T00:05:15;13.50;;;3.70;;
36691;SDS011;22678;52.052;4.242;2023-12-07T00:07:41;5.53;;;3.07;;
36691;SDS011;22678;52.052;4.242;2023-12-07T00:10:06;6.30;;;3.80;;
36691;SDS011;22678;52.052;4.242;2023-12-07T00:12:32;11.40;;;3.73;;
36691;SDS011;22678;52.052;4.242;2023-12-07T00:14:57;12.03;;;3.67;;
36691;SDS011;22678;52.052;4.242;2023-12-07T00:17:22;5.30;;;2.57;;
36691;SDS011;22678;52.052;4.242;2023-12-07T00:19:50;6.83;;;3.60;;
36691;SDS011;22678;52.052;4.242;2023-12-07T00:22:15;6.83;;;3.23;;
36691;SDS011;22678;52.052;4.242;2023-12-07T00:24:41;10.03;;;3.70;;
36691;SDS011;22678;52.052;4.242;2023-12-07T00:27:06;8.43;;;3.33;;
36691;SDS011;22678;52.052;4.242;2023-12-07T00:29:31;5.70;;;2.50;;
36691;SDS011;22678;52.052;4.242;2023-12-07T00:31:57;6.93;;;3.33;;
36691;SDS011;22678;52.052;4.242;2023-12-07T00:34:22;7.10;;;2.20;;
36691;SDS011;22678;52.052;4.242;2023-12-07T00:36:47;9.33;;;4.80;;
36691;SDS011;22678;52.052;4.242;2023-12-07T00:39:13;7.13;;;3.47;;
36691;SDS011;22678;52.052;4.242;2023-12-07T00:41:38;6.97;;;3.63;;
36691;SDS011;22678;52.052;4.242;2023-12-07T00:44:03;5.60;;;2.70;;
36691;SDS011;22678;52.052;4.242;2023-12-07T00:46:30;8.57;;;3.37;;
36691;SDS011;22678;52.052;4.242;2023-12-07T00:48:56;7.57;;;2.40;;
36691;SDS011;22678;52.052;4.242;2023-12-07T00:51:21;10.70;;;3.17;;
36691;SDS011;22678;52.052;4.242;2023-12-07T00:53:46;7.10;;;3.30;;
36691;SDS011;22678;52.052;4.242;2023-12-07T00:56:12;8.10;;;3.10;;
36691;SDS011;22678;52.052;4.242;2023-12-07T00:58:37;6.20;;;3.03;;
36691;SDS011;22678;52.052;4.242;2023-12-07T01:01:03;12.13;;;3.07;;
36691;SDS011;22678;52.052;4.242;2023-12-07T01:03:29;8.47;;;3.57;;
36691;SDS011;22678;52.052;4.242;2023-12-07T01:05:54;12.70;;;3.17;;
36691;SDS011;22678;52.052;4.242;2023-12-07T01:08:20;8.97;;;2.97;;
36691;SDS011;22678;52.052;4.242;2023-12-07T01:10:45;5.70;;;3.87;;
36691;SDS011;22678;52.052;4.242;2023-12-07T01:13:10;11.20;;;4.57;;
36691;SDS011;22678;52.052;4.242;2023-12-07T01:15:36;9.70;;;3.17;;
36691;SDS011;22678;52.052;4.242;2023-12-07T01:18:01;8.73;;;3.53;;
36691;SDS011;22678;52.052;4.242;2023-12-07T01:20:26;9.37;;;4.40;;
36691;SDS011;22678;52.052;4.242;2023-12-07T01:22:52;13.37;;;4.70;;
36691;SDS011;22678;52.052;4.242;2023-12-07T01:25:18;13.13;;;4.53;;
36691;SDS011;22678;52.052;4.242;2023-12-07T01:27:46;10.77;;;4.43;;
36691;SDS011;22678;52.052;4.242;2023-12-07T01:30:12;7.67;;;3.87;;
36691;SDS011;22678;52.052;4.242;2023-12-07T01:32:37;8.80;;;4.50;;
36691;SDS011;22678;52.052;4.242;2023-12-07T01:35:03;10.30;;;4.80;;
36691;SDS011;22678;52.052;4.242;2023-12-07T01:37:28;15.20;;;5.47;;
36691;SDS011;22678;52.052;4.242;2023-12-07T01:39:54;10.13;;;4.20;;
36691;SDS011;22678;52.052;4.242;2023-12-07T01:42:19;11.40;;;5.97;;
36691;SDS011;22678;52.052;4.242;2023-12-07T01:44:45;13.17;;;6.00;;
36691;SDS011;22678;52.052;4.242;2023-12-07T01:47:10;11.37;;;6.27;;
36691;SDS011;22678;52.052;4.242;2023-12-07T01:49:36;13.33;;;5.43;;
36691;SDS011;22678;52.052;4.242;2023-12-07T01:52:02;15.27;;;6.63;;
36691;SDS011;22678;52.052;4.242;2023-12-07T01:54:28;15.33;;;7.13;;
36691;SDS011;22678;52.052;4.242;2023-12-07T01:56:54;17.30;;;7.47;;
36691;SDS011;22678;52.052;4.242;2023-12-07T01:59:20;12.53;;;7.20;;
36691;SDS011;22678;52.052;4.242;2023-12-07T02:01:46;13.50;;;5.60;;
36691;SDS011;22678;52.052;4.242;2023-12-07T02:04:11;16.57;;;7.33;;
36691;SDS011;22678;52.052;4.242;2023-12-07T02:06:37;14.37;;;6.30;;
36691;SDS011;22678;52.052;4.242;2023-12-07T02:09:02;14.27;;;6.50;;
36691;SDS011;22678;52.052;4.242;2023-12-07T02:11:28;17.30;;;8.10;;
36691;SDS011;22678;52.052;4.242;2023-12-07T02:13:54;13.07;;;5.97;;
36691;SDS011;22678;52.052;4.242;2023-12-07T02:16:25;16.07;;;7.20;;
36691;SDS011;22678;52.052;4.242;2023-12-07T02:19:02;17.17;;;7.17;;
36691;SDS011;22678;52.052;4.242;2023-12-07T02:21:44;12.43;;;5.63;;
36691;SDS011;22678;52.052;4.242;2023-12-07T02:24:19;11.13;;;5.63;;
36691;SDS011;22678;52.052;4.242;2023-12-07T02:26:46;24.00;;;7.83;;
36691;SDS011;22678;52.052;4.242;2023-12-07T02:29:12;13.37;;;5.87;;
36691;SDS011;22678;52.052;4.242;2023-12-07T02:31:38;17.80;;;6.13;;
36691;SDS011;22678;52.052;4.242;2023-12-07T02:34:03;12.80;;;6.13;;
36691;SDS011;22678;52.052;4.242;2023-12-07T02:36:28;9.10;;;6.07;;
36691;SDS011;22678;52.052;4.242;2023-12-07T02:38:56;12.73;;;6.33;;
36691;SDS011;22678;52.052;4.242;2023-12-07T02:41:25;11.17;;;6.20;;
36691;SDS011;22678;52.052;4.242;2023-12-07T02:43:52;11.87;;;6.60;;
36691;SDS011;22678;52.052;4.242;2023-12-07T02:46:19;15.37;;;7.23;;
36691;SDS011;22678;52.052;4.242;2023-12-07T02:48:44;11.50;;;5.60;;
36691;SDS011;22678;52.052;4.242;2023-12-07T02:51:09;12.47;;;6.20;;
36691;SDS011;22678;52.052;4.242;2023-12-07T02:53:35;11.67;;;5.80;;
36691;SDS011;22678;52.052;4.242;2023-12-07T02:56:00;15.30;;;5.77;;
36691;SDS011;22678;52.052;4.242;2023-12-07T02:58:25;15.80;;;5.73;;
36691;SDS011;22678;52.052;4.242;2023-12-07T03:00:51;11.53;;;5.63;;
36691;SDS011;22678;52.052;4.242;2023-12-07T03:03:16;11.37;;;5.43;;
36691;SDS011;22678;52.052;4.242;2023-12-07T03:05:41;10.40;;;6.20;;
36691;SDS011;22678;52.052;4.242;2023-12-07T03:08:07;9.30;;;5.33;;
36691;SDS011;22678;52.052;4.242;2023-12-07T03:10:32;11.70;;;6.73;;
36691;SDS011;22678;52.052;4.242;2023-12-07T03:12:57;18.63;;;6.77;;
36691;SDS011;22678;52.052;4.242;2023-12-07T03:15:23;12.27;;;6.73;;
36691;SDS011;22678;52.052;4.242;2023-12-07T03:17:48;15.10;;;7.07;;
36691;SDS011;22678;52.052;4.242;2023-12-07T03:20:14;17.97;;;8.50;;
36691;SDS011;22678;52.052;4.242;2023-12-07T03:22:40;16.23;;;7.13;;
36691;SDS011;22678;52.052;4.242;2023-12-07T03:25:05;14.60;;;6.73;;
36691;SDS011;22678;52.052;4.242;2023-12-07T03:27:30;15.63;;;6.23;;
36691;SDS011;22678;52.052;4.242;2023-12-07T03:29:56;14.50;;;6.00;;
36691;SDS011;22678;52.052;4.242;2023-12-07T03:32:22;10.33;;;6.03;;
36691;SDS011;22678;52.052;4.242;2023-12-07T03:34:47;12.23;;;6.67;;
36691;SDS011;22678;52.052;4.242;2023-12-07T03:37:12;11.00;;;6.93;;
36691;SDS011;22678;52.052;4.242;2023-12-07T03:39:38;14.03;;;6.43;;
36691;SDS011;22678;52.052;4.242;2023-12-07T03:42:03;10.83;;;6.03;;
36691;SDS011;22678;52.052;4.242;2023-12-07T03:44:28;14.33;;;6.83;;
36691;SDS011;22678;52.052;4.242;2023-12-07T03:46:54;13.03;;;6.17;;
36691;SDS011;22678;52.052;4.242;2023-12-07T03:49:20;15.77;;;7.57;;
36691;SDS011;22678;52.052;4.242;2023-12-07T03:51:45;12.27;;;6.77;;
36691;SDS011;22678;52.052;4.242;2023-12-07T03:54:11;17.13;;;8.00;;
36691;SDS011;22678;52.052;4.242;2023-12-07T03:56:36;13.43;;;6.00;;
36691;SDS011;22678;52.052;4.242;2023-12-07T03:59:01;15.30;;;6.87;;
36691;SDS011;22678;52.052;4.242;2023-12-07T04:01:27;12.10;;;7.00;;
36691;SDS011;22678;52.052;4.242;2023-12-07T04:03:54;18.00;;;8.37;;
36691;SDS011;22678;52.052;4.242;2023-12-07T04:06:21;11.63;;;6.70;;
36691;SDS011;22678;52.052;4.242;2023-12-07T04:08:47;14.07;;;7.40;;
36691;SDS011;22678;52.052;4.242;2023-12-07T04:11:13;22.70;;;7.50;;
36691;SDS011;22678;52.052;4.242;2023-12-07T04:13:39;17.77;;;10.10;;
36691;SDS011;22678;52.052;4.242;2023-12-07T04:16:04;20.60;;;9.80;;
36691;SDS011;22678;52.052;4.242;2023-12-07T04:18:30;21.53;;;9.57;;
36691;SDS011;22678;52.052;4.242;2023-12-07T04:20:56;25.10;;;12.73;;
36691;SDS011;22678;52.052;4.242;2023-12-07T04:23:21;28.40;;;13.40;;
36691;SDS011;22678;52.052;4.242;2023-12-07T04:25:46;30.80;;;12.97;;
36691;SDS011;22678;52.052;4.242;2023-12-07T04:28:12;26.80;;;12.37;;
36691;SDS011;22678;52.052;4.242;2023-12-07T04:30:37;39.83;;;13.60;;
36691;SDS011;22678;52.052;4.242;2023-12-07T04:33:03;27.93;;;12.50;;
36691;SDS011;22678;52.052;4.242;2023-12-07T04:35:28;32.73;;;12.57;;
36691;SDS011;22678;52.052;4.242;2023-12-07T04:37:54;33.73;;;13.07;;
36691;SDS011;22678;52.052;4.242;2023-12-07T04:40:19;33.10;;;14.63;;
36691;SDS011;22678;52.052;4.242;2023-12-07T04:42:45;42.77;;;15.30;;
36691;SDS011;22678;52.052;4.242;2023-12-07T04:45:10;35.47;;;14.00;;
36691;SDS011;22678;52.052;4.242;2023-12-07T04:47:35;34.63;;;12.87;;
36691;SDS011;22678;52.052;4.242;2023-12-07T04:50:01;24.97;;;12.03;;
36691;SDS011;22678;52.052;4.242;2023-12-07T04:52:27;25.73;;;12.53;;
36691;SDS011;22678;52.052;4.242;2023-12-07T04:54:52;23.67;;;13.40;;
36691;SDS011;22678;52.052;4.242;2023-12-07T04:57:17;36.33;;;11.33;;
36691;SDS011;22678;52.052;4.242;2023-12-07T04:59:43;40.57;;;13.33;;
36691;SDS011;22678;52.052;4.242;2023-12-07T05:02:21;24.13;;;11.03;;
36691;SDS011;22678;52.052;4.242;2023-12-07T05:04:46;41.97;;;11.67;;
36691;SDS011;22678;52.052;4.242;2023-12-07T05:07:12;32.87;;;12.70;;
36691;SDS011;22678;52.052;4.242;2023-12-07T05:09:41;24.40;;;9.33;;
36691;SDS011;22678;52.052;4.242;2023-12-07T05:12:06;21.47;;;10.77;;
36691;SDS011;22678;52.052;4.242;2023-12-07T05:14:32;28.43;;;12.87;;
36691;SDS011;22678;52.052;4.242;2023-12-07T05:16:57;31.37;;;12.30;;
36691;SDS011;22678;52.052;4.242;2023-12-07T05:19:23;37.33;;;13.63;;
36691;SDS011;22678;52.052;4.242;2023-12-07T05:21:49;35.13;;;11.73;;
36691;SDS011;22678;52.052;4.242;2023-12-07T05:24:15;49.70;;;15.17;;
36691;SDS011;22678;52.052;4.242;2023-12-07T05:26:41;34.90;;;14.67;;
36691;SDS011;22678;52.052;4.242;2023-12-07T05:29:07;46.50;;;17.27;;
36691;SDS011;22678;52.052;4.242;2023-12-07T05:31:33;35.53;;;13.77;;
36691;SDS011;22678;52.052;4.242;2023-12-07T05:33:58;31.83;;;13.77;;
36691;SDS011;22678;52.052;4.242;2023-12-07T05:36:23;24.67;;;11.50;;
36691;SDS011;22678;52.052;4.242;2023-12-07T05:38:49;37.43;;;11.97;;
36691;SDS011;22678;52.052;4.242;2023-12-07T05:41:14;44.13;;;15.40;;
36691;SDS011;22678;52.052;4.242;2023-12-07T05:43:43;33.50;;;12.13;;
36691;SDS011;22678;52.052;4.242;2023-12-07T05:46:08;43.80;;;11.73;;
36691;SDS011;22678;52.052;4.242;2023-12-07T05:48:33;37.23;;;13.40;;
36691;SDS011;22678;52.052;4.242;2023-12-07T05:50:59;52.57;;;9.73;;
36691;SDS011;22678;52.052;4.242;2023-12-07T05:53:26;36.67;;;10.17;;
36691;SDS011;22678;52.052;4.242;2023-12-07T05:55:52;63.53;;;12.40;;
36691;SDS011;22678;52.052;4.242;2023-12-07T05:58:17;48.60;;;10.93;;
36691;SDS011;22678;52.052;4.242;2023-12-07T06:00:45;56.97;;;12.10;;
36691;SDS011;22678;52.052;4.242;2023-12-07T06:03:12;60.20;;;11.53;;
36691;SDS011;22678;52.052;4.242;2023-12-07T06:05:38;30.50;;;11.47;;
36691;SDS011;22678;52.052;4.242;2023-12-07T06:08:03;38.27;;;10.43;;
36691;SDS011;22678;52.052;4.242;2023-12-07T06:10:29;22.73;;;8.83;;
36691;SDS011;22678;52.052;4.242;2023-12-07T06:12:55;31.53;;;10.77;;
36691;SDS011;22678;52.052;4.242;2023-12-07T06:15:21;24.27;;;9.07;;
36691;SDS011;22678;52.052;4.242;2023-12-07T06:17:47;28.10;;;10.03;;
36691;SDS011;22678;52.052;4.242;2023-12-07T06:20:13;19.33;;;8.97;;
36691;SDS011;22678;52.052;4.242;2023-12-07T06:22:39;33.77;;;12.27;;
36691;SDS011;22678;52.052;4.242;2023-12-07T06:25:04;25.80;;;9.13;;
36691;SDS011;22678;52.052;4.242;2023-12-07T06:27:30;23.90;;;10.20;;
36691;SDS011;22678;52.052;4.242;2023-12-07T06:29:55;26.23;;;11.57;;
36691;SDS011;22678;52.052;4.242;2023-12-07T06:32:21;27.70;;;10.07;;
36691;SDS011;22678;52.052;4.242;2023-12-07T06:34:46;29.43;;;11.93;;
36691;SDS011;22678;52.052;4.242;2023-12-07T06:37:11;32.23;;;13.67;;
36691;SDS011;22678;52.052;4.242;2023-12-07T06:39:37;42.73;;;15.37;;
36691;SDS011;22678;52.052;4.242;2023-12-07T06:42:02;32.23;;;13.57;;
36691;SDS011;22678;52.052;4.242;2023-12-07T06:44:28;36.43;;;13.77;;
36691;SDS011;22678;52.052;4.242;2023-12-07T06:46:53;41.00;;;14.20;;
36691;SDS011;22678;52.052;4.242;2023-12-07T06:49:18;48.43;;;14.67;;
36691;SDS011;22678;52.052;4.242;2023-12-07T06:51:44;34.90;;;13.27;;
36691;SDS011;22678;52.052;4.242;2023-12-07T06:54:09;41.03;;;11.30;;
36691;SDS011;22678;52.052;4.242;2023-12-07T06:56:35;54.13;;;13.27;;
36691;SDS011;22678;52.052;4.242;2023-12-07T06:59:00;42.33;;;13.23;;
36691;SDS011;22678;52.052;4.242;2023-12-07T07:01:26;43.17;;;11.83;;
36691;SDS011;22678;52.052;4.242;2023-12-07T07:03:51;40.20;;;11.97;;
36691;SDS011;22678;52.052;4.242;2023-12-07T07:06:16;35.80;;;10.23;;
36691;SDS011;22678;52.052;4.242;2023-12-07T07:08:41;45.33;;;13.43;;
36691;SDS011;22678;52.052;4.242;2023-12-07T07:11:12;47.80;;;11.47;;
36691;SDS011;22678;52.052;4.242;2023-12-07T07:13:39;37.47;;;10.70;;
36691;SDS011;22678;52.052;4.242;2023-12-07T07:16:04;34.27;;;11.93;;
36691;SDS011;22678;52.052;4.242;2023-12-07T07:18:30;47.57;;;12.80;;
36691;SDS011;22678;52.052;4.242;2023-12-07T07:20:55;46.90;;;10.03;;
36691;SDS011;22678;52.052;4.242;2023-12-07T07:23:20;38.50;;;11.33;;
36691;SDS011;22678;52.052;4.242;2023-12-07T07:25:46;36.80;;;10.77;;
36691;SDS011;22678;52.052;4.242;2023-12-07T07:28:11;34.13;;;8.73;;
36691;SDS011;22678;52.052;4.242;2023-12-07T07:30:36;38.17;;;11.77;;
36691;SDS011;22678;52.052;4.242;2023-12-07T07:33:02;36.00;;;10.57;;
36691;SDS011;22678;52.052;4.242;2023-12-07T07:35:27;42.83;;;9.83;;
36691;SDS011;22678;52.052;4.242;2023-12-07T07:37:52;43.43;;;12.40;;
36691;SDS011;22678;52.052;4.242;2023-12-07T07:40:18;41.73;;;10.93;;
36691;SDS011;22678;52.052;4.242;2023-12-07T07:42:44;29.53;;;12.67;;
36691;SDS011;22678;52.052;4.242;2023-12-07T07:45:09;39.50;;;13.03;;
36691;SDS011;22678;52.052;4.242;2023-12-07T07:47:35;26.20;;;9.70;;
36691;SDS011;22678;52.052;4.242;2023-12-07T07:50:00;34.00;;;13.27;;
36691;SDS011;22678;52.052;4.242;2023-12-07T07:52:30;27.30;;;10.07;;
36691;SDS011;22678;52.052;4.242;2023-12-07T07:55:00;31.07;;;9.83;;
36691;SDS011;22678;52.052;4.242;2023-12-07T07:57:27;22.60;;;9.27;;
36691;SDS011;22678;52.052;4.242;2023-12-07T07:59:53;31.47;;;10.57;;
36691;SDS011;22678;52.052;4.242;2023-12-07T08:02:19;36.67;;;11.20;;
36691;SDS011;22678;52.052;4.242;2023-12-07T08:04:46;35.03;;;9.93;;
36691;SDS011;22678;52.052;4.242;2023-12-07T08:07:11;36.97;;;11.77;;
36691;SDS011;22678;52.052;4.242;2023-12-07T08:09:36;43.47;;;11.10;;
36691;SDS011;22678;52.052;4.242;2023-12-07T08:12:02;42.53;;;13.07;;
36691;SDS011;22678;52.052;4.242;2023-12-07T08:14:27;37.40;;;12.60;;
36691;SDS011;22678;52.052;4.242;2023-12-07T08:16:52;30.83;;;8.60;;
36691;SDS011;22678;52.052;4.242;2023-12-07T08:19:18;31.43;;;11.73;;
36691;SDS011;22678;52.052;4.242;2023-12-07T08:21:44;31.90;;;12.90;;
36691;SDS011;22678;52.052;4.242;2023-12-07T08:24:09;35.43;;;11.00;;
36691;SDS011;22678;52.052;4.242;2023-12-07T08:26:34;24.63;;;10.83;;
36691;SDS011;22678;52.052;4.242;2023-12-07T08:29:00;38.60;;;11.47;;
36691;SDS011;22678;52.052;4.242;2023-12-07T08:31:25;31.60;;;9.67;;
36691;SDS011;22678;52.052;4.242;2023-12-07T08:33:51;41.00;;;11.73;;
36691;SDS011;22678;52.052;4.242;2023-12-07T08:36:16;38.30;;;13.47;;
36691;SDS011;22678;52.052;4.242;2023-12-07T08:38:42;36.63;;;11.20;;
36691;SDS011;22678;52.052;4.242;2023-12-07T08:41:07;32.30;;;10.50;;
36691;SDS011;22678;52.052;4.242;2023-12-07T08:43:32;33.80;;;10.43;;
36691;SDS011;22678;52.052;4.242;2023-12-07T08:45:58;23.33;;;7.77;;
36691;SDS011;22678;52.052;4.242;2023-12-07T08:48:23;27.07;;;11.57;;
36691;SDS011;22678;52.052;4.242;2023-12-07T08:50:48;35.90;;;11.60;;
36691;SDS011;22678;52.052;4.242;2023-12-07T08:53:14;31.80;;;10.87;;
36691;SDS011;22678;52.052;4.242;2023-12-07T08:55:39;42.83;;;10.57;;
36691;SDS011;22678;52.052;4.242;2023-12-07T08:58:05;29.53;;;10.93;;
36691;SDS011;22678;52.052;4.242;2023-12-07T09:00:31;31.47;;;11.07;;
36691;SDS011;22678;52.052;4.242;2023-12-07T09:02:57;46.47;;;11.23;;
36691;SDS011;22678;52.052;4.242;2023-12-07T09:05:22;32.33;;;13.27;;
36691;SDS011;22678;52.052;4.242;2023-12-07T09:07:47;32.53;;;10.63;;
36691;SDS011;22678;52.052;4.242;2023-12-07T09:10:13;42.77;;;12.23;;
36691;SDS011;22678;52.052;4.242;2023-12-07T09:12:38;39.13;;;11.57;;
36691;SDS011;22678;52.052;4.242;2023-12-07T09:15:03;46.97;;;10.27;;
36691;SDS011;22678;52.052;4.242;2023-12-07T09:17:29;40.90;;;10.50;;
36691;SDS011;22678;52.052;4.242;2023-12-07T09:19:54;31.77;;;13.20;;
36691;SDS011;22678;52.052;4.242;2023-12-07T09:22:20;38.83;;;12.63;;
36691;SDS011;22678;52.052;4.242;2023-12-07T09:24:46;40.37;;;13.00;;
36691;SDS011;22678;52.052;4.242;2023-12-07T09:27:12;41.80;;;13.07;;
36691;SDS011;22678;52.052;4.242;2023-12-07T09:29:38;36.30;;;12.17;;
36691;SDS011;22678;52.052;4.242;2023-12-07T09:32:04;45.20;;;16.00;;
36691;SDS011;22678;52.052;4.242;2023-12-07T09:34:29;48.60;;;15.03;;
36691;SDS011;22678;52.052;4.242;2023-12-07T09:37:08;44.27;;;16.10;;
36691;SDS011;22678;52.052;4.242;2023-12-07T09:39:34;45.77;;;14.33;;
36691;SDS011;22678;52.052;4.242;2023-12-07T09:41:59;52.83;;;17.13;;
36691;SDS011;22678;52.052;4.242;2023-12-07T09:44:25;43.63;;;16.47;;
36691;SDS011;22678;52.052;4.242;2023-12-07T09:46:51;48.77;;;16.70;;
36691;SDS011;22678;52.052;4.242;2023-12-07T09:49:17;46.57;;;14.37;;
36691;SDS011;22678;52.052;4.242;2023-12-07T09:51:43;42.73;;;15.57;;
36691;SDS011;22678;52.052;4.242;2023-12-07T09:54:11;52.87;;;18.10;;
36691;SDS011;22678;52.052;4.242;2023-12-07T09:56:36;43.73;;;15.87;;
36691;SDS011;22678;52.052;4.242;2023-12-07T09:59:01;53.80;;;18.10;;
36691;SDS011;22678;52.052;4.242;2023-12-07T10:01:30;54.80;;;16.77;;
36691;SDS011;22678;52.052;4.242;2023-12-07T10:06:51;53.70;;;18.27;;
36691;SDS011;22678;52.052;4.242;2023-12-07T10:09:17;44.50;;;18.40;;
36691;SDS011;22678;52.052;4.242;2023-12-07T10:11:46;63.23;;;20.27;;
36691;SDS011;22678;52.052;4.242;2023-12-07T10:14:12;46.00;;;16.47;;
36691;SDS011;22678;52.052;4.242;2023-12-07T10:16:38;47.77;;;17.20;;
36691;SDS011;22678;52.052;4.242;2023-12-07T10:19:17;42.37;;;15.40;;
36691;SDS011;22678;52.052;4.242;2023-12-07T10:21:46;42.93;;;16.33;;
36691;SDS011;22678;52.052;4.242;2023-12-07T10:24:12;56.37;;;18.87;;
36691;SDS011;22678;52.052;4.242;2023-12-07T10:26:38;41.57;;;15.90;;
36691;SDS011;22678;52.052;4.242;2023-12-07T10:29:07;38.97;;;16.30;;
36691;SDS011;22678;52.052;4.242;2023-12-07T10:31:32;38.23;;;15.13;;
36691;SDS011;22678;52.052;4.242;2023-12-07T10:33:58;50.93;;;17.07;;
36691;SDS011;22678;52.052;4.242;2023-12-07T10:36:25;37.77;;;15.17;;
36691;SDS011;22678;52.052;4.242;2023-12-07T10:38:50;39.77;;;17.00;;
36691;SDS011;22678;52.052;4.242;2023-12-07T10:41:16;46.73;;;14.93;;
36691;SDS011;22678;52.052;4.242;2023-12-07T10:43:44;31.43;;;12.00;;
36691;SDS011;22678;52.052;4.242;2023-12-07T10:46:14;35.70;;;15.33;;
36691;SDS011;22678;52.052;4.242;2023-12-07T10:48:47;48.20;;;16.17;;
36691;SDS011;22678;52.052;4.242;2023-12-07T10:51:15;33.70;;;14.33;;
36691;SDS011;22678;52.052;4.242;2023-12-07T10:53:45;30.70;;;12.27;;
36691;SDS011;22678;52.052;4.242;2023-12-07T10:56:17;33.73;;;14.57;;
36691;SDS011;22678;52.052;4.242;2023-12-07T10:59:10;50.27;;;17.27;;
36691;SDS011;22678;52.052;4.242;2023-12-07T11:01:41;35.00;;;14.03;;
36691;SDS011;22678;52.052;4.242;2023-12-07T11:04:08;32.53;;;16.03;;
36691;SDS011;22678;52.052;4.242;2023-12-07T11:06:36;39.40;;;16.10;;
36691;SDS011;22678;52.052;4.242;2023-12-07T11:09:04;35.43;;;13.60;;
36691;SDS011;22678;52.052;4.242;2023-12-07T11:11:45;33.47;;;13.83;;
36691;SDS011;22678;52.052;4.242;2023-12-07T11:14:14;31.43;;;13.47;;
36691;SDS011;22678;52.052;4.242;2023-12-07T11:16:42;36.17;;;13.63;;
36691;SDS011;22678;52.052;4.242;2023-12-07T11:19:27;31.83;;;13.10;;
36691;SDS011;22678;52.052;4.242;2023-12-07T11:22:10;44.03;;;14.03;;
36691;SDS011;22678;52.052;4.242;2023-12-07T11:24:37;20.40;;;9.43;;
36691;SDS011;22678;52.052;4.242;2023-12-07T11:27:02;32.60;;;14.20;;
36691;SDS011;22678;52.052;4.242;2023-12-07T11:29:28;30.53;;;14.63;;
36691;SDS011;22678;52.052;4.242;2023-12-07T11:32:01;35.53;;;13.93;;
36691;SDS011;22678;52.052;4.242;2023-12-07T11:34:38;55.73;;;16.30;;
36691;SDS011;22678;52.052;4.242;2023-12-07T11:37:04;36.83;;;15.97;;
36691;SDS011;22678;52.052;4.242;2023-12-07T11:39:37;31.67;;;16.47;;
36691;SDS011;22678;52.052;4.242;2023-12-07T11:42:07;40.30;;;17.67;;
36691;SDS011;22678;52.052;4.242;2023-12-07T11:44:37;36.20;;;16.20;;
36691;SDS011;22678;52.052;4.242;2023-12-07T11:47:03;33.43;;;17.17;;
36691;SDS011;22678;52.052;4.242;2023-12-07T11:49:30;38.47;;;15.63;;
36691;SDS011;22678;52.052;4.242;2023-12-07T11:51:56;35.13;;;15.57;;
36691;SDS011;22678;52.052;4.242;2023-12-07T11:54:22;47.57;;;16.30;;
36691;SDS011;22678;52.052;4.242;2023-12-07T11:56:54;29.97;;;14.10;;
36691;SDS011;22678;52.052;4.242;2023-12-07T11:59:20;36.55;;;14.68;;
36691;SDS011;22678;52.052;4.242;2023-12-07T12:01:46;28.23;;;13.17;;
36691;SDS011;22678;52.052;4.242;2023-12-07T12:04:12;33.63;;;13.83;;
36691;SDS011;22678;52.052;4.242;2023-12-07T12:06:37;31.47;;;12.77;;
36691;SDS011;22678;52.052;4.242;2023-12-07T12:09:03;25.07;;;12.30;;
36691;SDS011;22678;52.052;4.242;2023-12-07T12:11:28;29.70;;;11.47;;
36691;SDS011;22678;52.052;4.242;2023-12-07T12:13:54;31.13;;;12.33;;
36691;SDS011;22678;52.052;4.242;2023-12-07T12:16:20;24.83;;;12.27;;
36691;SDS011;22678;52.052;4.242;2023-12-07T12:18:45;28.17;;;13.30;;
36691;SDS011;22678;52.052;4.242;2023-12-07T12:21:11;28.90;;;11.63;;
36691;SDS011;22678;52.052;4.242;2023-12-07T12:23:36;27.57;;;11.97;;
36691;SDS011;22678;52.052;4.242;2023-12-07T12:26:02;25.07;;;12.17;;
36691;SDS011;22678;52.052;4.242;2023-12-07T12:28:28;26.00;;;11.00;;
36691;SDS011;22678;52.052;4.242;2023-12-07T12:30:54;28.70;;;11.17;;
36691;SDS011;22678;52.052;4.242;2023-12-07T12:33:20;26.60;;;12.57;;
36691;SDS011;22678;52.052;4.242;2023-12-07T12:35:45;25.03;;;12.43;;
36691;SDS011;22678;52.052;4.242;2023-12-07T12:38:11;23.30;;;10.33;;
36691;SDS011;22678;52.052;4.242;2023-12-07T12:40:37;24.70;;;11.73;;
36691;SDS011;22678;52.052;4.242;2023-12-07T12:43:03;24.90;;;12.27;;
36691;SDS011;22678;52.052;4.242;2023-12-07T12:45:29;27.63;;;13.03;;
36691;SDS011;22678;52.052;4.242;2023-12-07T12:47:54;24.80;;;11.13;;
36691;SDS011;22678;52.052;4.242;2023-12-07T12:50:37;22.27;;;12.40;;
36691;SDS011;22678;52.052;4.242;2023-12-07T12:53:08;25.97;;;10.60;;
36691;SDS011;22678;52.052;4.242;2023-12-07T12:55:36;26.63;;;11.87;;
36691;SDS011;22678;52.052;4.242;2023-12-07T12:58:02;21.07;;;10.83;;
36691;SDS011;22678;52.052;4.242;2023-12-07T13:00:29;24.57;;;12.30;;
36691;SDS011;22678;52.052;4.242;2023-12-07T13:02:59;24.93;;;12.07;;
36691;SDS011;22678;52.052;4.242;2023-12-07T13:05:28;21.53;;;11.50;;
36691;SDS011;22678;52.052;4.242;2023-12-07T13:07:54;23.23;;;10.03;;
36691;SDS011;22678;52.052;4.242;2023-12-07T13:10:19;27.13;;;13.13;;
36691;SDS011;22678;52.052;4.242;2023-12-07T13:12:45;25.90;;;11.53;;
36691;SDS011;22678;52.052;4.242;2023-12-07T13:15:11;27.63;;;10.53;;
36691;SDS011;22678;52.052;4.242;2023-12-07T13:17:40;25.40;;;11.43;;
36691;SDS011;22678;52.052;4.242;2023-12-07T13:20:06;25.60;;;12.07;;
36691;SDS011;22678;52.052;4.242;2023-12-07T13:22:35;18.90;;;10.40;;
36691;SDS011;22678;52.052;4.242;2023-12-07T13:25:01;19.37;;;10.00;;
36691;SDS011;22678;52.052;4.242;2023-12-07T13:27:27;31.67;;;12.63;;
36691;SDS011;22678;52.052;4.242;2023-12-07T13:29:53;25.17;;;11.43;;
36691;SDS011;22678;52.052;4.242;2023-12-07T13:32:18;24.60;;;11.33;;
36691;SDS011;22678;52.052;4.242;2023-12-07T13:34:44;22.40;;;10.67;;
36691;SDS011;22678;52.052;4.242;2023-12-07T13:37:09;26.13;;;12.20;;
36691;SDS011;22678;52.052;4.242;2023-12-07T13:39:34;28.20;;;12.20;;
36691;SDS011;22678;52.052;4.242;2023-12-07T13:42:00;26.10;;;13.50;;
36691;SDS011;22678;52.052;4.242;2023-12-07T13:44:25;26.10;;;12.20;;
36691;SDS011;22678;52.052;4.242;2023-12-07T13:46:51;28.53;;;11.20;;
36691;SDS011;22678;52.052;4.242;2023-12-07T13:49:18;23.10;;;10.63;;
36691;SDS011;22678;52.052;4.242;2023-12-07T13:51:44;27.40;;;10.13;;
36691;SDS011;22678;52.052;4.242;2023-12-07T13:54:11;26.50;;;11.57;;
36691;SDS011;22678;52.052;4.242;2023-12-07T13:56:36;24.97;;;11.57;;
36691;SDS011;22678;52.052;4.242;2023-12-07T13:59:02;19.47;;;9.77;;
36691;SDS011;22678;52.052;4.242;2023-12-07T14:01:27;27.63;;;12.13;;
36691;SDS011;22678;52.052;4.242;2023-12-07T14:03:53;20.83;;;10.93;;
36691;SDS011;22678;52.052;4.242;2023-12-07T14:06:22;25.77;;;10.83;;
36691;SDS011;22678;52.052;4.242;2023-12-07T14:08:49;22.60;;;10.87;;
36691;SDS011;22678;52.052;4.242;2023-12-07T14:11:14;24.13;;;10.53;;
36691;SDS011;22678;52.052;4.242;2023-12-07T14:13:40;21.27;;;10.00;;
36691;SDS011;22678;52.052;4.242;2023-12-07T14:16:06;20.80;;;10.20;;
36691;SDS011;22678;52.052;4.242;2023-12-07T14:18:33;19.50;;;10.37;;
36691;SDS011;22678;52.052;4.242;2023-12-07T14:20:59;22.33;;;9.23;;
36691;SDS011;22678;52.052;4.242;2023-12-07T14:23:24;18.73;;;9.20;;
36691;SDS011;22678;52.052;4.242;2023-12-07T14:25:49;23.30;;;10.87;;